Time;durP1;ratioP1;P1;durP2;ratioP2;P2;SDS_P1;SDS_P2;PMS_P1;PMS_P2;Temp;Humidity;BMP_temperature;BMP_pressure;BME280_temperature;BME280_humidity;BME280_pressure;Samples;Min_cycle;Max_cycle;Signal;HPM_P1;HPM_P2
2022/09/17 00:01:06;;;;;;;10.07;2.28;;;12.40;77.60;;;;;;5040476;28;20117;-74
2022/09/17 00:03:33;;;;;;;14.82;2.83;;;12.50;77.00;;;;;;5023811;28;20042;-75
2022/09/17 00:06:11;;;;;;;14.45;2.75;;;12.50;76.90;;;;;;5040376;28;20131;-76
2022/09/17 00:08:38;;;;;;;18.02;2.83;;;12.50;77.20;;;;;;5040620;28;20125;-73
2022/09/17 00:11:13;;;;;;;10.50;3.33;;;12.50;77.10;;;;;;5040360;28;20136;-76
2022/09/17 00:13:40;;;;;;;16.77;2.88;;;12.50;76.50;;;;;;5040172;28;20078;-73
2022/09/17 00:16:06;;;;;;;13.80;2.80;;;12.40;76.50;;;;;;5040207;28;20046;-74
2022/09/17 00:18:32;;;;;;;8.85;2.30;;;12.30;76.30;;;;;;5040571;28;20051;-75
2022/09/17 00:20:58;;;;;;;11.02;2.42;;;12.40;75.80;;;;;;5040207;28;20096;-73
2022/09/17 00:23:24;;;;;;;16.73;2.78;;;12.50;75.50;;;;;;5040012;28;20050;-73
2022/09/17 00:25:49;;;;;;;15.15;3.28;;;12.50;76.00;;;;;;5040503;28;20046;-75
2022/09/17 00:28:15;;;;;;;10.07;3.17;;;12.60;76.60;;;;;;5040220;28;20054;-74
2022/09/17 00:30:42;;;;;;;9.23;1.67;;;12.60;76.00;;;;;;5039964;28;20419;-74
2022/09/17 00:33:11;;;;;;;13.20;2.30;;;12.70;72.80;;;;;;5039658;28;20046;-75
2022/09/17 00:35:37;;;;;;;6.88;1.90;;;12.60;72.00;;;;;;5040056;28;20437;-74
2022/09/17 00:38:03;;;;;;;11.60;1.83;;;12.60;71.20;;;;;;5039769;28;20039;-73
2022/09/17 00:40:29;;;;;;;11.20;2.13;;;12.60;71.10;;;;;;5039773;28;20379;-75
2022/09/17 00:42:55;;;;;;;6.68;2.05;;;12.70;72.20;;;;;;5039840;28;20041;-76
2022/09/17 00:45:21;;;;;;;7.65;1.45;;;12.70;74.60;;;;;;5039666;28;20054;-75
2022/09/17 00:48:01;;;;;;;6.10;1.60;;;12.60;76.20;;;;;;5039757;28;20506;-76
2022/09/17 00:50:30;;;;;;;7.40;1.45;;;12.50;75.40;;;;;;5039510;28;20134;-74
2022/09/17 00:53:16;;;;;;;12.88;1.83;;;12.50;75.70;;;;;;5039522;28;20077;-73
2022/09/17 00:55:47;;;;;;;13.93;2.20;;;12.40;76.90;;;;;;5039552;28;20046;-75
2022/09/17 00:58:15;;;;;;;8.38;2.15;;;12.30;77.90;;;;;;5039372;28;20510;-74
2022/09/17 01:00:41;;;;;;;8.93;2.50;;;12.30;78.10;;;;;;5039770;28;20344;-74
2022/09/17 01:03:07;;;;;;;9.93;2.10;;;12.10;78.40;;;;;;5039202;28;20039;-73
2022/09/17 01:05:35;;;;;;;9.63;1.83;;;12.10;78.30;;;;;;5039605;28;20054;-75
2022/09/17 01:08:07;;;;;;;10.35;2.80;;;12.00;78.60;;;;;;5039296;28;20507;-73
2022/09/17 01:10:57;;;;;;;19.70;2.80;;;12.00;79.00;;;;;;5038227;28;20322;-75
2022/09/17 01:13:32;;;;;;;19.70;3.88;;;12.00;79.40;;;;;;5039232;28;20042;-76
2022/09/17 01:16:13;;;;;;;9.55;2.40;;;12.00;79.40;;;;;;5038972;28;20074;-73
2022/09/17 01:19:34;;;;;;;10.13;2.85;;;12.00;79.00;;;;;;5039083;28;20530;-76
2022/09/17 01:22:24;;;;;;;12.30;2.08;;;12.00;78.50;;;;;;4962887;28;20097;-75
2022/09/17 01:25:23;;;;;;;9.05;2.17;;;12.10;77.60;;;;;;5035780;28;20525;-74
2022/09/17 01:28:28;;;;;;;10.52;2.65;;;12.20;76.30;;;;;;5052569;28;20407;-74
2022/09/17 01:31:25;;;;;;;10.20;2.05;;;12.10;76.80;;;;;;5052609;28;20037;-75
2022/09/17 01:34:01;;;;;;;13.90;3.97;;;12.10;77.20;;;;;;5131323;27;20383;-74
2022/09/17 01:37:02;;;;;;;10.65;2.10;;;12.10;77.50;;;;;;5130374;28;20134;-72
2022/09/17 01:40:09;;;;;;;11.40;2.40;;;12.10;77.50;;;;;;5130060;28;20039;-73
2022/09/17 01:42:49;;;;;;;13.85;3.65;;;12.00;77.50;;;;;;5067883;28;20540;-73
2022/09/17 01:45:23;;;;;;;8.98;2.00;;;12.10;76.70;;;;;;5051173;28;20068;-75
2022/09/17 01:47:53;;;;;;;15.60;2.63;;;12.00;76.40;;;;;;5081315;28;20104;-73
2022/09/17 01:50:24;;;;;;;8.40;1.63;;;12.20;75.10;;;;;;5129852;28;20043;-73
2022/09/17 01:52:54;;;;;;;9.10;1.90;;;12.20;75.80;;;;;;5129719;28;20523;-75
2022/09/17 01:55:22;;;;;;;9.43;2.38;;;12.20;76.40;;;;;;5129909;28;20039;-71
2022/09/17 01:57:55;;;;;;;17.73;2.90;;;12.10;76.50;;;;;;5129925;28;20035;-75
2022/09/17 02:00:22;;;;;;;10.07;2.13;;;12.10;76.40;;;;;;5129653;27;20047;-74
2022/09/17 02:02:51;;;;;;;14.98;1.90;;;12.10;76.50;;;;;;5129436;28;20078;-72
2022/09/17 02:05:27;;;;;;;14.20;2.30;;;12.10;76.80;;;;;;5129678;27;20070;-72
2022/09/17 02:07:57;;;;;;;14.05;2.08;;;12.10;76.90;;;;;;5129791;28;20418;-72
2022/09/17 02:10:30;;;;;;;10.50;1.98;;;12.20;76.20;;;;;;5129704;28;20428;-73
2022/09/17 02:13:07;;;;;;;11.77;2.20;;;12.20;76.50;;;;;;5129496;28;20043;-73
2022/09/17 02:15:40;;;;;;;12.57;1.92;;;12.20;76.80;;;;;;5129301;27;20063;-73
2022/09/17 02:18:14;;;;;;;11.27;2.17;;;12.10;77.10;;;;;;5129339;28;20502;-74
2022/09/17 02:20:49;;;;;;;9.80;2.17;;;12.10;77.20;;;;;;5129209;27;20036;-76
2022/09/17 02:23:21;;;;;;;11.63;3.05;;;12.10;77.20;;;;;;5129376;28;20095;-72
2022/09/17 02:26:03;;;;;;;10.50;2.58;;;12.00;77.10;;;;;;5129178;28;20136;-75
2022/09/17 02:28:48;;;;;;;12.35;1.80;;;12.00;77.30;;;;;;5129116;28;20043;-74
2022/09/17 02:31:14;;;;;;;10.18;2.08;;;12.00;77.10;;;;;;5129043;28;20126;-75
2022/09/17 02:33:43;;;;;;;7.07;1.38;;;12.00;76.70;;;;;;5111582;28;20126;-74
2022/09/17 02:36:09;;;;;;;11.05;2.10;;;12.10;76.30;;;;;;5128944;28;20027;-74
2022/09/17 02:38:37;;;;;;;9.45;2.25;;;12.20;75.80;;;;;;5129010;28;20035;-73
2022/09/17 02:41:15;;;;;;;9.70;1.88;;;12.30;76.10;;;;;;5129068;28;20390;-74
2022/09/17 02:43:50;;;;;;;6.95;1.77;;;12.20;76.90;;;;;;5124446;28;20047;-73
2022/09/17 02:46:41;;;;;;;8.75;1.70;;;12.20;76.00;;;;;;5115089;28;20082;-74
2022/09/17 02:49:23;;;;;;;8.57;2.08;;;12.20;75.60;;;;;;5115016;28;20035;-74
2022/09/17 02:52:06;;;;;;;12.70;2.63;;;12.20;74.70;;;;;;5115111;28;20047;-75
2022/09/17 02:55:08;;;;;;;6.63;1.63;;;12.20;75.00;;;;;;5114931;28;20035;-75
2022/09/17 02:57:37;;;;;;;11.68;2.20;;;12.30;74.30;;;;;;5036511;28;20048;-73
2022/09/17 03:00:08;;;;;;;9.57;1.70;;;12.20;73.90;;;;;;5100349;28;20047;-73
2022/09/17 03:02:44;;;;;;;9.02;2.05;;;12.20;72.90;;;;;;5114955;28;20372;-74
2022/09/17 03:05:11;;;;;;;6.57;1.63;;;12.20;72.90;;;;;;5114686;28;20174;-73
2022/09/17 03:07:37;;;;;;;6.13;1.23;;;12.10;70.20;;;;;;5114598;28;20173;-73
2022/09/17 03:10:04;;;;;;;9.63;1.83;;;12.10;69.50;;;;;;5114592;28;20502;-75
2022/09/17 03:12:30;;;;;;;5.15;1.20;;;12.10;69.80;;;;;;5114345;28;20051;-74
2022/09/17 03:14:56;;;;;;;6.32;1.48;;;12.10;70.10;;;;;;5114787;28;20391;-75
2022/09/17 03:17:22;;;;;;;4.93;1.20;;;12.10;70.40;;;;;;5097384;28;20039;-73
2022/09/17 03:19:47;;;;;;;9.32;1.67;;;12.00;70.70;;;;;;5114324;28;20046;-75
2022/09/17 03:22:13;;;;;;;8.35;2.03;;;12.00;71.40;;;;;;5114235;28;20039;-74
2022/09/17 03:24:39;;;;;;;7.60;1.40;;;12.00;71.90;;;;;;5114271;28;20054;-74
2022/09/17 03:27:04;;;;;;;20.42;1.95;;;11.90;72.50;;;;;;5114278;28;20040;-74
2022/09/17 03:29:30;;;;;;;7.47;2.10;;;11.80;73.10;;;;;;5114414;28;20096;-75
2022/09/17 03:31:56;;;;;;;12.23;3.25;;;11.80;73.40;;;;;;5113825;28;20372;-74
2022/09/17 03:34:22;;;;;;;13.50;2.30;;;11.80;73.90;;;;;;5114099;28;20152;-75
2022/09/17 03:36:48;;;;;;;13.27;2.25;;;11.80;74.30;;;;;;5114041;28;20078;-74
2022/09/17 03:39:14;;;;;;;8.02;1.80;;;11.80;74.30;;;;;;5114301;28;20477;-74
2022/09/17 03:41:39;;;;;;;13.30;1.85;;;11.80;74.20;;;;;;5113832;28;20575;-73
2022/09/17 03:44:09;;;;;;;12.25;2.65;;;11.80;74.30;;;;;;5114072;28;20040;-73
2022/09/17 03:46:35;;;;;;;13.18;2.75;;;11.80;74.70;;;;;;5113881;28;20105;-75
2022/09/17 03:49:01;;;;;;;11.55;2.38;;;11.70;74.80;;;;;;5096860;28;20044;-75
2022/09/17 03:51:27;;;;;;;10.18;2.40;;;11.80;75.00;;;;;;5113624;28;20036;-75
2022/09/17 03:53:52;;;;;;;10.60;2.10;;;11.70;75.10;;;;;;5113888;28;20073;-73
2022/09/17 03:56:18;;;;;;;13.60;2.13;;;11.70;75.30;;;;;;5112674;28;20047;-72
2022/09/17 03:58:44;;;;;;;15.38;3.50;;;11.70;75.50;;;;;;5113585;28;20071;-73
2022/09/17 04:01:10;;;;;;;12.93;1.92;;;11.80;75.40;;;;;;5113645;28;20051;-74
2022/09/17 04:03:35;;;;;;;16.10;3.28;;;11.80;76.30;;;;;;5113460;28;20046;-75
2022/09/17 04:06:03;;;;;;;8.93;2.28;;;11.90;76.50;;;;;;5096728;28;20048;-73
2022/09/17 04:08:29;;;;;;;11.70;4.03;;;11.80;78.00;;;;;;5113726;28;20044;-75
2022/09/17 04:10:54;;;;;;;9.25;2.33;;;11.80;78.90;;;;;;5113429;28;20504;-74
2022/09/17 04:13:20;;;;;;;8.55;2.17;;;11.80;79.30;;;;;;5113251;28;20147;-73
2022/09/17 04:15:46;;;;;;;12.30;4.15;;;11.50;79.90;;;;;;5113552;28;20049;-74
2022/09/17 04:18:13;;;;;;;12.32;2.40;;;11.30;79.70;;;;;;5113222;28;20071;-75
2022/09/17 04:20:39;;;;;;;9.73;1.95;;;11.20;80.10;;;;;;5114403;28;20036;-73
2022/09/17 04:23:06;;;;;;;11.35;1.70;;;11.10;79.80;;;;;;5113041;28;20039;-71
2022/09/17 04:25:32;;;;;;;12.93;3.10;;;11.00;79.90;;;;;;5096080;28;20046;-73
2022/09/17 04:27:58;;;;;;;8.70;2.40;;;10.90;80.00;;;;;;5113021;28;20044;-73
2022/09/17 04:30:24;;;;;;;14.23;3.03;;;10.80;80.40;;;;;;5113022;28;20043;-75
2022/09/17 04:32:49;;;;;;;14.90;2.80;;;10.70;80.90;;;;;;5112642;28;20055;-74
2022/09/17 04:35:15;;;;;;;11.85;2.20;;;10.80;81.10;;;;;;5112868;28;20103;-76
2022/09/17 04:37:41;;;;;;;12.68;2.97;;;10.80;80.90;;;;;;5113084;28;20074;-74
2022/09/17 04:40:07;;;;;;;10.60;2.17;;;10.80;80.70;;;;;;5095900;28;20482;-73
2022/09/17 04:42:33;;;;;;;14.35;2.00;;;10.90;80.70;;;;;;5112712;28;20362;-74
2022/09/17 04:44:58;;;;;;;12.35;1.90;;;10.80;80.50;;;;;;5112733;28;20083;-73
2022/09/17 04:47:24;;;;;;;7.53;1.55;;;10.80;80.70;;;;;;5112630;28;20044;-73
2022/09/17 04:49:50;;;;;;;8.95;2.58;;;10.80;80.80;;;;;;5095856;28;20048;-72
2022/09/17 04:52:16;;;;;;;19.67;2.60;;;10.90;80.50;;;;;;5095544;28;20433;-75
2022/09/17 04:54:41;;;;;;;5.88;1.50;;;11.00;79.90;;;;;;5112468;28;20042;-74
2022/09/17 04:57:07;;;;;;;8.10;1.95;;;11.00;79.30;;;;;;5112534;28;20044;-74
2022/09/17 04:59:33;;;;;;;15.85;2.88;;;11.00;79.10;;;;;;5112488;28;20032;-74
2022/09/17 05:01:58;;;;;;;15.27;1.95;;;11.00;79.40;;;;;;5112653;28;20052;-75
2022/09/17 05:04:24;;;;;;;12.45;2.70;;;11.10;79.40;;;;;;5095669;28;20387;-75
2022/09/17 05:06:50;;;;;;;12.25;2.88;;;11.10;79.60;;;;;;5112406;28;20089;-76
2022/09/17 05:09:15;;;;;;;5.00;1.73;;;11.20;80.50;;;;;;5112343;28;20100;-76
2022/09/17 05:11:41;;;;;;;9.30;1.67;;;11.20;81.30;;;;;;5112341;28;20452;-74
2022/09/17 05:14:07;;;;;;;8.15;1.83;;;11.20;80.90;;;;;;5112106;28;20049;-73
2022/09/17 05:16:33;;;;;;;8.02;1.70;;;11.20;80.80;;;;;;5094925;28;20041;-76
2022/09/17 05:18:58;;;;;;;8.15;1.85;;;11.20;81.10;;;;;;5112160;28;20042;-72
2022/09/17 05:21:24;;;;;;;9.57;2.35;;;11.10;81.10;;;;;;5112487;28;20035;-75
2022/09/17 05:23:49;;;;;;;6.55;1.52;;;11.10;81.40;;;;;;5095036;28;20561;-76
2022/09/17 05:26:15;;;;;;;7.82;1.77;;;11.20;80.60;;;;;;5095246;28;20047;-76
2022/09/17 05:28:41;;;;;;;6.85;1.35;;;11.30;80.60;;;;;;5112280;28;20054;-74
2022/09/17 05:31:07;;;;;;;3.00;1.08;;;11.30;80.80;;;;;;5095240;28;20040;-73
2022/09/17 05:33:33;;;;;;;6.38;1.33;;;11.40;81.20;;;;;;5111650;28;20060;-76
2022/09/17 05:35:59;;;;;;;7.68;1.77;;;11.50;80.50;;;;;;5112028;28;20034;-73
2022/09/17 05:38:25;;;;;;;5.28;1.10;;;11.60;80.20;;;;;;5112073;28;20031;-73
2022/09/17 05:40:51;;;;;;;7.43;1.33;;;11.60;80.10;;;;;;5111984;28;20547;-75
2022/09/17 05:43:17;;;;;;;3.08;0.85;;;11.60;80.20;;;;;;5111883;28;20135;-73
2022/09/17 05:45:43;;;;;;;5.45;1.92;;;11.70;80.10;;;;;;5111962;28;20136;-77
2022/09/17 05:48:13;;;;;;;5.65;1.33;;;11.70;80.90;;;;;;5111884;28;20128;-77
2022/09/17 05:50:40;;;;;;;6.65;1.50;;;11.60;81.50;;;;;;5111912;28;20097;-76
2022/09/17 05:53:10;;;;;;;10.35;1.70;;;11.50;81.50;;;;;;5111760;28;20305;-76
2022/09/17 05:55:35;;;;;;;4.03;1.25;;;11.40;81.00;;;;;;5112278;28;20043;-77
2022/09/17 05:58:09;;;;;;;4.93;0.90;;;11.30;80.80;;;;;;5111872;28;20402;-75
2022/09/17 06:00:35;;;;;;;4.50;1.05;;;11.20;80.60;;;;;;5111944;28;20036;-73
2022/09/17 06:03:01;;;;;;;9.38;1.50;;;11.20;80.10;;;;;;5112063;28;20387;-71
2022/09/17 06:05:27;;;;;;;7.10;2.03;;;11.20;80.00;;;;;;5111998;28;20044;-74
2022/09/17 06:07:53;;;;;;;8.98;1.60;;;11.10;80.40;;;;;;5111798;28;20074;-73
2022/09/17 06:10:18;;;;;;;8.18;1.75;;;11.10;80.70;;;;;;5111653;28;20044;-74
2022/09/17 06:12:44;;;;;;;9.27;1.80;;;11.20;81.30;;;;;;5111597;28;20044;-73
2022/09/17 06:15:13;;;;;;;11.48;1.60;;;11.20;81.80;;;;;;5111968;28;20051;-76
2022/09/17 06:17:40;;;;;;;11.68;1.73;;;11.30;82.20;;;;;;5094669;28;20075;-75
2022/09/17 06:20:06;;;;;;;8.70;1.80;;;11.40;81.90;;;;;;5114339;28;20073;-73
2022/09/17 06:22:32;;;;;;;7.18;1.63;;;11.30;81.80;;;;;;5115439;28;20044;-75
2022/09/17 06:24:59;;;;;;;4.40;1.23;;;11.30;82.10;;;;;;5115670;28;20074;-75
2022/09/17 06:27:33;;;;;;;9.60;1.58;;;11.40;82.00;;;;;;5098478;28;20049;-75
2022/09/17 06:29:58;;;;;;;7.40;1.35;;;11.40;80.70;;;;;;5115598;28;20485;-77
2022/09/17 06:32:24;;;;;;;6.95;0.98;;;11.50;79.60;;;;;;5114999;28;20090;-74
2022/09/17 06:34:50;;;;;;;5.03;0.98;;;11.50;79.70;;;;;;5115281;28;20051;-74
2022/09/17 06:37:16;;;;;;;6.50;1.55;;;11.50;80.00;;;;;;5115232;28;20047;-75
2022/09/17 06:39:41;;;;;;;4.80;1.10;;;11.70;79.70;;;;;;5115433;28;20043;-75
2022/09/17 06:42:07;;;;;;;5.03;1.38;;;11.70;79.90;;;;;;5115317;28;20545;-74
2022/09/17 06:44:33;;;;;;;8.55;1.52;;;11.90;79.60;;;;;;5115304;28;20514;-75
2022/09/17 06:46:58;;;;;;;9.18;2.67;;;12.00;79.10;;;;;;5115289;28;20047;-77
2022/09/17 06:49:24;;;;;;;13.45;2.10;;;12.10;80.00;;;;;;5115291;28;20548;-74
2022/09/17 06:51:50;;;;;;;7.35;1.30;;;12.10;80.20;;;;;;5115066;28;20545;-76
2022/09/17 06:54:18;;;;;;;5.57;1.20;;;12.00;80.00;;;;;;5114854;28;20548;-76
2022/09/17 06:56:46;;;;;;;3.28;0.90;;;12.00;80.20;;;;;;5097845;28;20039;-78
2022/09/17 06:59:12;;;;;;;5.63;0.95;;;11.90;80.40;;;;;;5098143;28;20485;-75
2022/09/17 07:01:38;;;;;;;4.50;0.82;;;11.90;80.10;;;;;;5114929;28;20119;-74
2022/09/17 07:04:03;;;;;;;5.65;0.90;;;11.90;79.90;;;;;;5114741;28;20399;-77
2022/09/17 07:06:29;;;;;;;5.18;1.17;;;12.00;79.90;;;;;;5114654;28;20122;-79
2022/09/17 07:08:55;;;;;;;3.05;0.50;;;11.90;79.80;;;;;;5114594;28;20044;-74
2022/09/17 07:11:20;;;;;;;4.13;0.88;;;11.70;80.10;;;;;;5114553;28;20073;-74
2022/09/17 07:13:46;;;;;;;4.20;0.75;;;11.60;80.10;;;;;;5114234;28;20044;-76
2022/09/17 07:16:12;;;;;;;3.53;0.82;;;11.50;80.10;;;;;;5114719;28;20044;-74
2022/09/17 07:18:39;;;;;;;1.40;0.50;;;11.50;79.90;;;;;;5114442;28;20044;-73
2022/09/17 07:21:06;;;;;;;4.18;0.90;;;11.40;80.20;;;;;;5080717;28;20046;-73
2022/09/17 07:23:33;;;;;;;5.03;0.93;;;11.40;80.60;;;;;;5114229;28;20054;-74
2022/09/17 07:26:02;;;;;;;8.55;1.30;;;11.40;80.80;;;;;;5114277;28;20496;-76
2022/09/17 07:28:28;;;;;;;2.78;0.95;;;11.40;81.20;;;;;;5114241;28;20043;-74
2022/09/17 07:30:55;;;;;;;5.70;1.02;;;11.30;81.60;;;;;;5114316;28;20055;-74
2022/09/17 07:33:24;;;;;;;2.53;0.73;;;11.30;82.00;;;;;;5113828;28;20056;-74
2022/09/17 07:35:55;;;;;;;13.18;1.60;;;11.20;82.00;;;;;;5114353;28;20027;-75
2022/09/17 07:38:21;;;;;;;5.20;1.88;;;11.20;82.50;;;;;;5114080;28;20093;-75
2022/09/17 07:40:58;;;;;;;7.60;2.15;;;11.20;82.80;;;;;;5114214;28;20094;-77
2022/09/17 07:43:34;;;;;;;8.10;1.67;;;11.30;83.20;;;;;;5113899;28;20046;-76
2022/09/17 07:46:02;;;;;;;6.57;1.25;;;11.40;83.50;;;;;;5113977;28;20047;-77
2022/09/17 07:48:29;;;;;;;3.85;1.10;;;11.40;83.40;;;;;;5113878;28;20043;-76
2022/09/17 07:50:55;;;;;;;5.10;0.80;;;11.40;83.80;;;;;;5114106;28;20383;-77
2022/09/17 07:53:21;;;;;;;4.80;1.20;;;11.40;83.60;;;;;;5079898;28;20081;-75
2022/09/17 07:55:58;;;;;;;4.30;0.85;;;11.50;83.20;;;;;;5114041;28;20392;-75
2022/09/17 07:58:28;;;;;;;7.22;1.38;;;11.80;83.20;;;;;;5096939;28;20115;-77
2022/09/17 08:01:03;;;;;;;7.28;1.67;;;12.00;82.90;;;;;;5113649;28;20066;-77
2022/09/17 08:03:29;;;;;;;5.82;1.90;;;12.10;82.80;;;;;;5113572;28;20047;-77
2022/09/17 08:06:02;;;;;;;4.35;1.40;;;12.10;82.40;;;;;;5113739;28;20391;-77
2022/09/17 08:08:30;;;;;;;5.60;1.47;;;12.10;82.60;;;;;;5113579;28;20039;-77
2022/09/17 08:11:00;;;;;;;5.95;1.48;;;12.00;83.10;;;;;;5113395;28;20131;-76
2022/09/17 08:13:26;;;;;;;4.88;1.55;;;12.00;82.60;;;;;;5113280;28;20126;-75
2022/09/17 08:15:51;;;;;;;10.27;2.25;;;12.00;82.70;;;;;;5113322;28;20067;-78
2022/09/17 08:18:17;;;;;;;11.18;1.80;;;12.00;83.20;;;;;;5113215;28;20043;-76
2022/09/17 08:20:43;;;;;;;8.93;1.77;;;12.10;82.90;;;;;;5113278;28;20088;-75
2022/09/17 08:23:09;;;;;;;8.15;1.50;;;12.20;82.90;;;;;;5113398;28;20086;-76
2022/09/17 08:25:34;;;;;;;6.70;1.98;;;12.40;82.60;;;;;;5113185;28;20046;-76
2022/09/17 08:28:00;;;;;;;6.75;1.58;;;12.50;82.60;;;;;;5096056;28;20051;-76
2022/09/17 08:30:27;;;;;;;4.03;0.73;;;12.60;82.30;;;;;;5096419;28;20075;-76
2022/09/17 08:32:55;;;;;;;10.38;2.30;;;12.80;81.60;;;;;;5112611;28;20090;-78
2022/09/17 08:35:21;;;;;;;6.28;1.40;;;12.80;81.30;;;;;;5113169;28;20502;-76
2022/09/17 08:37:46;;;;;;;5.97;1.10;;;12.80;81.10;;;;;;5112838;28;20043;-77
2022/09/17 08:40:18;;;;;;;8.18;1.70;;;12.80;80.60;;;;;;5112856;28;20039;-78
2022/09/17 08:43:02;;;;;;;5.40;1.40;;;12.70;80.30;;;;;;5112550;28;20152;-76
2022/09/17 08:45:28;;;;;;;7.00;2.22;;;12.70;80.30;;;;;;5112988;28;20126;-76
2022/09/17 08:48:02;;;;;;;10.05;1.50;;;12.80;80.30;;;;;;5095977;28;20388;-76
2022/09/17 08:50:31;;;;;;;6.97;1.40;;;13.00;80.20;;;;;;5112759;28;20048;-75
2022/09/17 08:53:20;;;;;;;6.88;2.58;;;13.10;80.30;;;;;;5112627;28;20043;-77
2022/09/17 08:56:05;;;;;;;4.47;0.98;;;13.40;80.20;;;;;;5112539;28;20488;-76
2022/09/17 08:59:09;;;;;;;7.97;1.80;;;13.50;76.70;;;;;;5112826;28;20482;-77
2022/09/17 09:02:05;;;;;;;5.13;1.55;;;13.70;76.20;;;;;;5100383;28;20055;-76
2022/09/17 09:05:07;;;;;;;6.00;1.88;;;13.80;74.10;;;;;;5095731;28;20178;-75
2022/09/17 09:07:42;;;;;;;7.78;1.88;;;13.70;72.70;;;;;;5112394;28;20046;-77
2022/09/17 09:10:31;;;;;;;6.97;1.50;;;13.70;73.40;;;;;;5112446;28;20552;-76
2022/09/17 09:12:59;;;;;;;6.60;1.63;;;13.70;72.70;;;;;;5112352;28;20380;-77
2022/09/17 09:15:31;;;;;;;5.82;1.55;;;13.90;72.90;;;;;;5112266;28;20526;-75
2022/09/17 09:18:04;;;;;;;3.65;0.60;;;14.00;73.10;;;;;;5112324;28;20655;-76
2022/09/17 09:21:20;;;;;;;2.88;0.50;;;14.00;70.10;;;;;;5112264;28;20046;-75
2022/09/17 09:23:55;;;;;;;3.92;0.90;;;14.00;69.90;;;;;;5078128;28;20126;-76
2022/09/17 09:26:28;;;;;;;7.72;0.88;;;14.00;70.10;;;;;;5112178;28;20496;-76
2022/09/17 09:29:04;;;;;;;3.35;0.95;;;14.00;70.20;;;;;;5112417;28;20105;-77
2022/09/17 09:32:24;;;;;;;6.65;1.17;;;14.00;71.30;;;;;;5112074;28;20128;-75
2022/09/17 09:34:53;;;;;;;5.63;1.10;;;14.00;72.30;;;;;;5033830;28;20060;-75
2022/09/17 09:37:43;;;;;;;8.65;1.50;;;14.00;73.20;;;;;;5080477;28;20426;-76
2022/09/17 09:40:39;;;;;;;7.03;1.25;;;14.00;74.10;;;;;;5112044;28;20039;-76
2022/09/17 09:43:19;;;;;;;8.07;1.58;;;14.10;75.30;;;;;;5111985;28;20100;-76
2022/09/17 09:45:53;;;;;;;9.55;1.42;;;14.10;76.00;;;;;;5112261;28;20062;-79
2022/09/17 09:48:58;;;;;;;5.75;1.33;;;14.00;77.10;;;;;;5112006;28;20070;-78
2022/09/17 09:51:51;;;;;;;6.88;2.45;;;13.70;78.00;;;;;;5112202;28;20036;-75
2022/09/17 09:54:41;;;;;;;8.02;1.50;;;13.50;78.00;;;;;;5113329;28;20043;-76
2022/09/17 09:57:11;;;;;;;12.63;1.65;;;13.40;78.60;;;;;;5116312;28;20055;-77
2022/09/17 09:59:37;;;;;;;6.82;1.20;;;13.50;80.50;;;;;;5116084;28;20043;-77
2022/09/17 10:02:03;;;;;;;7.32;1.00;;;13.70;78.30;;;;;;5115876;28;20119;-75
2022/09/17 10:04:31;;;;;;;3.75;0.90;;;13.70;75.30;;;;;;5116138;28;20035;-77
2022/09/17 10:07:09;;;;;;;7.47;1.05;;;13.70;76.20;;;;;;5115850;28;20047;-76
2022/09/17 10:09:37;;;;;;;11.10;1.50;;;13.80;76.70;;;;;;5098793;28;20123;-76
2022/09/17 10:12:12;;;;;;;4.72;0.90;;;14.00;76.50;;;;;;5115912;28;20048;-79
2022/09/17 10:14:40;;;;;;;7.82;1.05;;;14.00;77.40;;;;;;5115927;28;20484;-76
2022/09/17 10:17:19;;;;;;;6.68;1.27;;;14.30;77.40;;;;;;5115646;28;20075;-75
2022/09/17 10:20:09;;;;;;;4.05;0.93;;;14.40;77.40;;;;;;5115601;28;20071;-76
2022/09/17 10:22:45;;;;;;;5.30;1.33;;;14.20;73.70;;;;;;5115755;28;20396;-75
2022/09/17 10:25:23;;;;;;;3.80;1.33;;;13.90;74.60;;;;;;5115538;28;20050;-75
2022/09/17 10:27:49;;;;;;;4.65;0.80;;;13.90;76.10;;;;;;5115734;28;20051;-78
2022/09/17 10:30:17;;;;;;;5.20;0.82;;;13.90;76.80;;;;;;5115322;28;20515;-76
2022/09/17 10:32:43;;;;;;;4.70;0.90;;;14.00;77.00;;;;;;5115148;28;20055;-76
2022/09/17 10:35:14;;;;;;;7.32;1.35;;;14.10;77.50;;;;;;5115597;28;20039;-76
2022/09/17 10:37:48;;;;;;;2.25;1.00;;;14.20;76.00;;;;;;5115575;28;20039;-75
2022/09/17 10:40:34;;;;;;;6.97;1.15;;;14.20;75.00;;;;;;5115521;28;20067;-75
2022/09/17 10:43:18;;;;;;;8.63;1.55;;;14.00;75.90;;;;;;5114952;28;20395;-76
2022/09/17 10:45:55;;;;;;;6.83;1.00;;;13.70;77.40;;;;;;5115096;28;20048;-75
2022/09/17 10:48:21;;;;;;;5.28;1.20;;;13.50;77.30;;;;;;5115075;28;20078;-77
2022/09/17 10:50:49;;;;;;;9.27;1.30;;;13.30;77.70;;;;;;5115067;28;20047;-78
2022/09/17 10:53:17;;;;;;;5.68;0.90;;;13.20;77.80;;;;;;5114954;28;20062;-77
2022/09/17 10:55:42;;;;;;;11.05;1.70;;;13.20;77.60;;;;;;5114898;28;20047;-76
2022/09/17 10:58:26;;;;;;;9.27;1.70;;;13.20;78.60;;;;;;5114889;28;20051;-76
2022/09/17 11:01:21;;;;;;;10.05;2.20;;;13.10;79.30;;;;;;5115088;28;20062;-77
2022/09/17 11:04:31;;;;;;;12.68;2.03;;;13.00;80.10;;;;;;5114946;28;20399;-75
2022/09/17 11:07:18;;;;;;;7.82;1.35;;;13.10;80.50;;;;;;5105409;28;20500;-76
2022/09/17 11:09:56;;;;;;;6.53;1.50;;;13.40;80.30;;;;;;5114574;28;20046;-75
2022/09/17 11:12:41;;;;;;;7.60;1.75;;;13.70;79.50;;;;;;5114485;28;20039;-75
2022/09/17 11:15:43;;;;;;;7.68;1.48;;;13.80;78.80;;;;;;5114556;28;20079;-75
2022/09/17 11:18:28;;;;;;;7.05;1.45;;;13.90;79.10;;;;;;5114463;28;20041;-78
2022/09/17 11:21:12;;;;;;;;;;;13.60;76.90;;;;;;5098198;28;20043;-81
2022/09/17 11:24:08;;;;;;;3.28;0.85;;;13.30;76.20;;;;;;5097329;28;19923;-77
2022/09/17 11:26:42;;;;;;;8.95;2.25;;;13.00;75.50;;;;;;5114338;28;20040;-78
2022/09/17 11:29:35;;;;;;;7.00;1.50;;;12.80;76.90;;;;;;5114323;28;20044;-78
2022/09/17 11:32:28;;;;;;;10.05;2.17;;;12.90;77.70;;;;;;5113959;28;20058;-78
2022/09/17 11:35:18;;;;;;;7.88;2.08;;;12.90;78.00;;;;;;5114179;28;20089;-76
2022/09/17 11:38:02;;;;;;;11.23;2.55;;;13.00;78.30;;;;;;5114019;28;20046;-75
2022/09/17 11:40:37;;;;;;;11.20;2.45;;;13.40;79.30;;;;;;5097018;28;20118;-77
2022/09/17 11:43:13;;;;;;;9.13;1.67;;;13.80;79.80;;;;;;5114006;28;20058;-78
2022/09/17 11:45:52;;;;;;;9.50;1.88;;;14.20;79.60;;;;;;5114201;28;20079;-78
2022/09/17 11:48:23;;;;;;;7.43;1.77;;;14.60;77.80;;;;;;5114239;28;20448;-78
2022/09/17 11:50:54;;;;;;;10.63;2.47;;;15.00;75.10;;;;;;5113929;28;20042;-78
2022/09/17 11:53:38;;;;;;;18.88;3.35;;;15.30;70.80;;;;;;5113875;28;20388;-77
2022/09/17 11:56:17;;;;;;;9.02;1.80;;;15.60;71.20;;;;;;5113846;28;20079;-76
2022/09/17 11:59:23;;;;;;;9.85;2.22;;;15.80;66.10;;;;;;5114041;28;20043;-76
2022/09/17 12:01:56;;;;;;;14.15;2.00;;;16.00;64.40;;;;;;5113623;28;20407;-79
2022/09/17 12:04:36;;;;;;;11.10;1.90;;;16.10;61.40;;;;;;5113652;28;20036;-76
2022/09/17 12:07:18;;;;;;;6.38;1.60;;;16.30;61.60;;;;;;5113574;28;20145;-77
2022/09/17 12:09:54;;;;;;;6.68;1.55;;;16.40;61.30;;;;;;5113351;28;20036;-76
2022/09/17 12:12:25;;;;;;;7.40;1.80;;;16.50;59.60;;;;;;5113608;28;20039;-76
2022/09/17 12:15:06;;;;;;;9.93;2.58;;;16.50;60.50;;;;;;5113350;28;20122;-76
2022/09/17 12:17:45;;;;;;;8.27;2.05;;;16.60;59.80;;;;;;5112535;28;20039;-75
2022/09/17 12:20:34;;;;;;;7.68;1.23;;;16.90;60.60;;;;;;5096583;28;20043;-76
2022/09/17 12:23:03;;;;;;;10.73;2.15;;;16.90;55.90;;;;;;5113192;28;20079;-76
2022/09/17 12:25:49;;;;;;;8.88;1.85;;;17.00;56.00;;;;;;5113139;28;20065;-75
2022/09/17 12:28:23;;;;;;;9.82;1.75;;;17.10;56.90;;;;;;5113396;28;20044;-78
2022/09/17 12:31:16;;;;;;;6.80;1.63;;;17.20;55.80;;;;;;5096191;28;20069;-76
2022/09/17 12:33:50;;;;;;;3.78;1.00;;;17.20;55.50;;;;;;5084671;28;20101;-76
2022/09/17 12:36:25;;;;;;;5.05;1.23;;;17.00;53.40;;;;;;5112994;28;20040;-76
2022/09/17 12:39:25;;;;;;;3.65;0.77;;;16.70;54.80;;;;;;5113187;28;20053;-76
2022/09/17 12:42:02;;;;;;;7.68;1.38;;;16.20;53.10;;;;;;5112806;28;20051;-77
2022/09/17 12:44:56;;;;;;;9.38;1.58;;;16.00;55.80;;;;;;5113172;28;20426;-75
2022/09/17 12:48:00;;;;;;;6.72;2.78;;;15.80;58.70;;;;;;5088115;28;20046;-77
2022/09/17 12:50:40;;;;;;;8.85;2.10;;;16.00;61.20;;;;;;5112775;28;20039;-77
2022/09/17 12:53:22;;;;;;;10.00;1.42;;;16.00;63.10;;;;;;5112596;28;20046;-76
2022/09/17 12:55:58;;;;;;;5.10;1.25;;;15.70;62.50;;;;;;5112691;28;20074;-78
2022/09/17 12:58:42;;;;;;;4.82;1.10;;;15.70;62.90;;;;;;5112648;28;20031;-78
2022/09/17 13:01:30;;;;;;;8.70;1.58;;;15.80;61.80;;;;;;5112529;28;20368;-76
2022/09/17 13:04:12;;;;;;;7.65;2.08;;;15.80;62.40;;;;;;5112730;28;20449;-76
2022/09/17 13:06:56;;;;;;;8.60;1.42;;;16.00;63.50;;;;;;5112786;28;20047;-75
2022/09/17 13:09:41;;;;;;;7.38;1.60;;;16.20;63.90;;;;;;5112406;28;20035;-77
2022/09/17 13:12:33;;;;;;;7.53;2.00;;;16.30;62.30;;;;;;5112196;28;20068;-76
2022/09/17 13:15:17;;;;;;;6.18;1.08;;;16.40;62.40;;;;;;5112391;28;20488;-75